Time;durP1;ratioP1;P1;durP2;ratioP2;P2;SDS_P1;SDS_P2;PMS_P1;PMS_P2;Temp;Humidity;BMP_temperature;BMP_pressure;BME280_temperature;BME280_humidity;BME280_pressure;Samples;Min_cycle;Max_cycle;Signal;HPM_P1;HPM_P2
2023/07/15 00:01:37;;;;;;;5.15;2.47;;;19.50;99.90;;;;;;5105789;28;20048;-81
2023/07/15 00:04:04;;;;;;;4.13;1.95;;;19.50;99.90;;;;;;5107556;28;20027;-80
2023/07/15 00:06:29;;;;;;;3.25;2.63;;;19.50;99.90;;;;;;5105980;27;20096;-81
2023/07/15 00:08:56;;;;;;;4.05;3.08;;;19.50;99.90;;;;;;5107429;28;20047;-81
2023/07/15 00:11:24;;;;;;;5.38;2.92;;;19.60;99.90;;;;;;5108223;28;20058;-81
2023/07/15 00:13:50;;;;;;;3.92;2.45;;;19.50;99.90;;;;;;5110335;28;20539;-80
2023/07/15 00:16:15;;;;;;;4.82;2.45;;;19.50;99.90;;;;;;5116340;28;20043;-81
2023/07/15 00:18:41;;;;;;;7.15;2.85;;;19.50;99.90;;;;;;5114199;27;20093;-81
2023/07/15 00:21:30;;;;;;;2.65;2.42;;;19.50;99.90;;;;;;5118342;28;20038;-81
2023/07/15 00:23:56;;;;;;;5.55;2.30;;;19.60;99.90;;;;;;5110353;28;20123;-79
2023/07/15 00:26:23;;;;;;;3.95;1.98;;;19.60;99.90;;;;;;5109263;28;20162;-81
2023/07/15 00:28:50;;;;;;;5.00;2.47;;;19.60;99.90;;;;;;5106671;28;20079;-80
2023/07/15 00:31:17;;;;;;;5.38;2.53;;;19.70;99.90;;;;;;5107278;28;20046;-78
2023/07/15 00:33:43;;;;;;;5.53;2.15;;;19.70;99.90;;;;;;5106419;28;20031;-81
2023/07/15 00:36:10;;;;;;;3.90;2.75;;;19.60;99.90;;;;;;5111982;28;20027;-79
2023/07/15 00:38:36;;;;;;;5.47;2.20;;;19.70;99.90;;;;;;5105954;28;20036;-80
2023/07/15 00:41:03;;;;;;;2.53;2.00;;;19.70;99.90;;;;;;5106589;28;20050;-81
2023/07/15 00:43:58;;;;;;;5.63;2.30;;;19.70;99.90;;;;;;5103962;27;20050;-81
2023/07/15 00:46:28;;;;;;;3.65;2.30;;;19.70;99.90;;;;;;5110632;27;20036;-81
2023/07/15 00:49:08;;;;;;;9.07;2.35;;;19.70;99.90;;;;;;5111977;27;20058;-82
2023/07/15 00:51:36;;;;;;;3.13;1.90;;;19.70;99.90;;;;;;5113730;27;20047;-80
2023/07/15 00:54:03;;;;;;;6.78;2.95;;;19.70;99.90;;;;;;5118585;27;20397;-81
2023/07/15 00:56:31;;;;;;;6.03;2.25;;;19.70;99.90;;;;;;5113579;27;20122;-81
2023/07/15 00:58:57;;;;;;;6.57;2.55;;;19.70;99.90;;;;;;5111199;27;20089;-81
2023/07/15 01:01:22;;;;;;;4.32;2.47;;;19.70;99.90;;;;;;5108478;27;20070;-80
2023/07/15 01:03:48;;;;;;;3.53;2.40;;;19.70;99.90;;;;;;5112068;27;20058;-80
2023/07/15 01:06:14;;;;;;;6.55;2.38;;;19.70;99.90;;;;;;5107818;27;20047;-78
2023/07/15 01:08:40;;;;;;;4.65;2.15;;;19.70;99.90;;;;;;5106726;27;20044;-82
2023/07/15 01:11:06;;;;;;;4.45;2.70;;;19.70;99.90;;;;;;5103567;27;20062;-82
2023/07/15 01:13:33;;;;;;;5.03;1.80;;;19.70;99.90;;;;;;5108578;27;20035;-81
2023/07/15 01:15:58;;;;;;;5.03;2.33;;;19.70;99.90;;;;;;5108473;27;20079;-81
2023/07/15 01:18:24;;;;;;;5.95;2.00;;;19.70;99.90;;;;;;5107927;27;20521;-81
2023/07/15 01:20:50;;;;;;;4.38;2.08;;;19.70;99.90;;;;;;5106771;27;20039;-81
2023/07/15 01:23:16;;;;;;;4.28;1.65;;;19.60;99.90;;;;;;5108225;27;20039;-82
2023/07/15 01:25:42;;;;;;;4.32;1.90;;;19.60;99.90;;;;;;5107929;27;20401;-82
2023/07/15 01:28:07;;;;;;;3.63;1.95;;;19.60;99.90;;;;;;5106087;27;20043;-80
2023/07/15 01:30:33;;;;;;;5.53;2.35;;;19.70;99.90;;;;;;5107485;27;20050;-81
2023/07/15 01:32:58;;;;;;;3.30;1.88;;;19.70;99.90;;;;;;5119291;27;20040;-81
2023/07/15 01:35:24;;;;;;;3.47;1.92;;;19.70;99.90;;;;;;5110400;27;20091;-81
2023/07/15 01:37:49;;;;;;;3.05;1.73;;;19.80;99.90;;;;;;5113053;27;20039;-81
2023/07/15 01:40:15;;;;;;;2.97;1.85;;;19.60;99.90;;;;;;5110610;27;20123;-82
2023/07/15 01:42:41;;;;;;;4.10;1.98;;;19.80;99.90;;;;;;5089073;27;20430;-82
2023/07/15 01:45:09;;;;;;;4.72;2.00;;;19.90;99.90;;;;;;5104163;27;20565;-78
2023/07/15 01:47:36;;;;;;;3.38;1.73;;;19.80;99.90;;;;;;5105938;27;20112;-81
2023/07/15 01:50:02;;;;;;;2.70;1.67;;;19.80;99.90;;;;;;5108778;27;20043;-80
2023/07/15 01:52:27;;;;;;;6.50;1.95;;;19.90;99.90;;;;;;5114553;27;20036;-80
2023/07/15 01:54:53;;;;;;;5.32;1.70;;;19.90;99.90;;;;;;5111382;27;20039;-80
2023/07/15 01:57:18;;;;;;;5.50;2.65;;;19.90;99.90;;;;;;5111006;27;20135;-81
2023/07/15 01:59:44;;;;;;;3.45;1.83;;;20.00;99.90;;;;;;5114094;27;20039;-82
2023/07/15 02:02:10;;;;;;;2.35;1.55;;;20.00;99.90;;;;;;5119885;27;20031;-82
2023/07/15 02:04:36;;;;;;;3.08;1.52;;;20.00;99.90;;;;;;5122406;27;20059;-81
2023/07/15 02:07:02;;;;;;;4.40;1.50;;;20.10;99.90;;;;;;5114543;27;20100;-82
2023/07/15 02:09:28;;;;;;;3.53;1.70;;;20.10;99.90;;;;;;5113817;27;20097;-81
2023/07/15 02:11:54;;;;;;;6.35;1.60;;;20.10;99.90;;;;;;5116725;27;20047;-80
2023/07/15 02:14:20;;;;;;;4.03;1.92;;;20.10;99.90;;;;;;5115795;27;20049;-81
2023/07/15 02:16:45;;;;;;;2.70;1.15;;;20.20;99.90;;;;;;5111442;27;20031;-81
2023/07/15 02:19:11;;;;;;;3.35;1.70;;;20.20;99.90;;;;;;5119302;27;20452;-81
2023/07/15 02:21:36;;;;;;;4.88;1.63;;;20.20;99.90;;;;;;5113046;27;20051;-79
2023/07/15 02:24:02;;;;;;;6.97;2.40;;;20.20;99.90;;;;;;5115031;27;20043;-82
2023/07/15 02:26:28;;;;;;;2.55;1.60;;;20.20;99.90;;;;;;5109972;27;20044;-80
2023/07/15 02:28:57;;;;;;;2.33;1.70;;;20.20;99.90;;;;;;5118194;27;20379;-81
2023/07/15 02:31:22;;;;;;;6.40;1.92;;;20.20;99.90;;;;;;5114940;27;20040;-81
2023/07/15 02:33:48;;;;;;;4.00;1.80;;;20.20;99.90;;;;;;5096124;27;20059;-81
2023/07/15 02:36:15;;;;;;;7.88;1.83;;;20.20;99.90;;;;;;5107830;27;20086;-81
2023/07/15 02:38:40;;;;;;;3.22;1.38;;;20.10;99.90;;;;;;5112820;27;20389;-80
2023/07/15 02:41:06;;;;;;;3.38;1.92;;;20.10;99.90;;;;;;5113569;27;20036;-80
2023/07/15 02:43:32;;;;;;;6.05;1.52;;;20.20;99.90;;;;;;5115247;27;20031;-80
2023/07/15 02:45:57;;;;;;;4.85;1.60;;;20.10;99.90;;;;;;5118251;27;20530;-81
2023/07/15 02:48:24;;;;;;;8.15;1.48;;;20.10;99.90;;;;;;5113173;27;20044;-81
2023/07/15 02:50:56;;;;;;;5.95;1.80;;;20.10;99.90;;;;;;5111406;27;20172;-82
2023/07/15 02:53:21;;;;;;;6.80;1.85;;;20.00;99.90;;;;;;5112320;27;20059;-78
2023/07/15 02:55:48;;;;;;;6.32;2.13;;;20.00;99.90;;;;;;5109603;27;20028;-81
2023/07/15 02:58:14;;;;;;;5.28;1.55;;;20.00;99.90;;;;;;5106019;27;20039;-81
2023/07/15 03:00:40;;;;;;;7.45;1.63;;;20.00;99.90;;;;;;5106281;28;20049;-78
2023/07/15 03:03:07;;;;;;;2.67;1.52;;;20.00;99.90;;;;;;5101361;27;20165;-80
2023/07/15 03:05:33;;;;;;;5.70;1.98;;;20.00;99.90;;;;;;5103834;27;20046;-81
2023/07/15 03:07:59;;;;;;;6.30;1.40;;;19.90;99.90;;;;;;5107533;27;20046;-80
2023/07/15 03:10:25;;;;;;;5.28;2.10;;;19.90;99.90;;;;;;5114200;27;20473;-82
2023/07/15 03:12:50;;;;;;;4.15;1.77;;;19.90;99.90;;;;;;5114464;27;20050;-81
2023/07/15 03:15:16;;;;;;;7.97;2.45;;;19.80;99.90;;;;;;5115087;27;20050;-81
2023/07/15 03:17:42;;;;;;;3.97;1.63;;;19.90;99.90;;;;;;5108793;27;20051;-79
2023/07/15 03:20:30;;;;;;;4.22;2.00;;;19.80;99.90;;;;;;5104774;27;20035;-80
2023/07/15 03:22:55;;;;;;;4.28;1.95;;;19.80;99.90;;;;;;5107421;27;20040;-80
2023/07/15 03:25:22;;;;;;;4.25;1.48;;;19.70;99.90;;;;;;5117210;27;20096;-81
2023/07/15 03:27:49;;;;;;;6.10;1.67;;;19.70;99.90;;;;;;5108577;27;20052;-79
2023/07/15 03:30:15;;;;;;;3.92;1.50;;;19.70;99.90;;;;;;5109971;27;20035;-81
2023/07/15 03:32:41;;;;;;;3.83;2.22;;;19.70;99.90;;;;;;5108823;27;20477;-81
2023/07/15 03:35:10;;;;;;;3.67;1.40;;;19.60;99.90;;;;;;5109321;27;20108;-81
2023/07/15 03:37:38;;;;;;;6.68;1.40;;;19.60;99.90;;;;;;5107836;27;20123;-81
2023/07/15 03:40:08;;;;;;;3.78;1.42;;;19.60;99.90;;;;;;5104338;28;20028;-81
2023/07/15 03:42:35;;;;;;;5.70;1.58;;;19.70;99.90;;;;;;5106357;27;20079;-81
2023/07/15 03:45:04;;;;;;;2.58;1.40;;;19.60;99.90;;;;;;5107191;27;20050;-79
2023/07/15 03:47:30;;;;;;;3.00;1.40;;;19.60;99.90;;;;;;5106374;28;20031;-81
2023/07/15 03:49:55;;;;;;;8.32;1.40;;;19.60;99.90;;;;;;5108191;28;20354;-80
2023/07/15 03:52:21;;;;;;;2.90;1.23;;;19.60;99.90;;;;;;5110684;27;21051;-79
2023/07/15 03:54:46;;;;;;;5.80;1.48;;;19.60;99.90;;;;;;5102190;28;20032;-77
2023/07/15 03:57:12;;;;;;;4.55;1.42;;;19.70;99.90;;;;;;5104753;28;20036;-81
2023/07/15 03:59:38;;;;;;;3.08;1.45;;;19.60;99.90;;;;;;5114982;28;20051;-79
2023/07/15 04:02:04;;;;;;;4.60;1.33;;;19.60;99.90;;;;;;5118493;28;20516;-80
2023/07/15 04:04:30;;;;;;;4.75;1.30;;;19.60;99.90;;;;;;5111167;28;20494;-81
2023/07/15 04:06:57;;;;;;;3.53;1.30;;;19.60;99.90;;;;;;5110691;28;20051;-81
2023/07/15 04:09:23;;;;;;;7.03;1.60;;;19.60;99.90;;;;;;5110425;28;20139;-80
2023/07/15 04:11:49;;;;;;;4.22;1.48;;;19.60;99.90;;;;;;5105364;28;20126;-79
2023/07/15 04:14:16;;;;;;;2.25;1.23;;;19.60;99.90;;;;;;5105535;28;20043;-79
2023/07/15 04:16:42;;;;;;;6.40;1.95;;;19.70;99.90;;;;;;5101535;28;20097;-80
2023/07/15 04:19:07;;;;;;;3.58;1.80;;;19.90;99.90;;;;;;5105008;28;20055;-80
2023/07/15 04:21:33;;;;;;;6.88;1.52;;;20.50;99.90;;;;;;5103191;28;20071;-80
2023/07/15 04:23:59;;;;;;;4.53;1.38;;;21.40;99.90;;;;;;5106200;27;20046;-81
2023/07/15 04:26:26;;;;;;;4.85;1.20;;;22.10;99.90;;;;;;5115607;27;20050;-81
2023/07/15 04:28:54;;;;;;;5.47;1.48;;;22.70;99.90;;;;;;5121103;27;20047;-81
2023/07/15 04:31:20;;;;;;;4.80;1.55;;;22.80;99.90;;;;;;5110642;27;21656;-79
2023/07/15 04:33:51;;;;;;;6.15;1.75;;;23.00;99.90;;;;;;5109615;27;20055;-79
2023/07/15 04:36:21;;;;;;;3.35;1.45;;;23.40;99.90;;;;;;5107940;27;20035;-82
2023/07/15 04:38:47;;;;;;;6.78;1.88;;;24.10;99.90;;;;;;5108273;27;20040;-80
2023/07/15 04:41:12;;;;;;;5.30;1.55;;;24.50;99.90;;;;;;5109281;27;20044;-81
2023/07/15 04:43:38;;;;;;;2.35;1.20;;;24.40;99.90;;;;;;5090667;27;20043;-79
2023/07/15 04:46:05;;;;;;;5.47;1.60;;;24.70;99.90;;;;;;5110431;27;20040;-80
2023/07/15 04:48:30;;;;;;;6.72;1.75;;;24.90;99.90;;;;;;5108668;27;20067;-82
2023/07/15 04:50:56;;;;;;;2.75;1.60;;;24.60;99.90;;;;;;5107940;27;20089;-82
2023/07/15 04:53:22;;;;;;;2.72;1.42;;;24.00;99.90;;;;;;5109826;27;20642;-81
2023/07/15 04:55:48;;;;;;;3.25;1.30;;;23.60;99.90;;;;;;5107820;27;20040;-82
2023/07/15 04:58:15;;;;;;;5.05;1.73;;;23.30;99.90;;;;;;5107043;27;20055;-80
2023/07/15 05:00:41;;;;;;;7.65;1.50;;;23.10;99.90;;;;;;5109789;27;20043;-78
2023/07/15 05:03:07;;;;;;;6.60;1.30;;;22.80;99.90;;;;;;5108499;27;20048;-82
2023/07/15 05:05:33;;;;;;;2.40;1.27;;;22.50;99.90;;;;;;5108150;27;20108;-79
2023/07/15 05:08:13;;;;;;;4.25;1.45;;;22.20;99.90;;;;;;5109263;27;20044;-81
2023/07/15 05:10:40;;;;;;;3.70;1.45;;;22.00;99.90;;;;;;5114366;27;20047;-81
2023/07/15 05:13:09;;;;;;;4.78;1.52;;;21.80;99.90;;;;;;5111368;27;20122;-80
2023/07/15 05:15:38;;;;;;;3.75;1.80;;;21.60;99.90;;;;;;5114957;27;20376;-81
2023/07/15 05:18:06;;;;;;;3.58;1.40;;;21.50;99.90;;;;;;5113457;27;20054;-81
2023/07/15 05:20:33;;;;;;;9.35;1.77;;;21.60;99.90;;;;;;5113232;27;20461;-81
2023/07/15 05:23:00;;;;;;;7.75;1.75;;;22.30;99.90;;;;;;5107493;27;20054;-82
2023/07/15 05:25:26;;;;;;;4.43;1.10;;;23.60;99.90;;;;;;5111295;27;20035;-81
2023/07/15 05:27:51;;;;;;;4.60;1.92;;;25.10;99.90;;;;;;5118348;27;20040;-80
2023/07/15 05:30:19;;;;;;;4.63;1.65;;;26.50;99.90;;;;;;5114485;27;20481;-81
2023/07/15 05:32:45;;;;;;;5.68;1.90;;;27.60;99.30;;;;;;5117663;27;20047;-81
2023/07/15 05:35:10;;;;;;;6.68;1.67;;;28.70;98.10;;;;;;5113109;27;20466;-81
2023/07/15 05:37:36;;;;;;;5.32;1.52;;;29.40;96.90;;;;;;5117262;27;20047;-81
2023/07/15 05:40:08;;;;;;;3.67;1.70;;;30.00;96.00;;;;;;5115950;27;20044;-80
2023/07/15 05:42:44;;;;;;;19.15;2.80;;;30.50;95.00;;;;;;5109859;27;20403;-82
2023/07/15 05:45:10;;;;;;;;;;;30.40;94.50;;;;;;5114815;27;20044;-82
2023/07/15 05:47:40;;;;;;;6.53;1.70;;;29.80;94.20;;;;;;5113604;27;19924;-81
2023/07/15 05:50:16;;;;;;;4.28;1.42;;;29.10;94.20;;;;;;5114455;27;20035;-79
2023/07/15 05:52:41;;;;;;;7.55;1.35;;;28.70;95.20;;;;;;5112323;27;20047;-81
2023/07/15 05:55:07;;;;;;;5.70;1.65;;;28.20;95.40;;;;;;5110538;27;20050;-81
2023/07/15 05:57:33;;;;;;;5.93;1.27;;;27.80;95.60;;;;;;5111934;27;20118;-82
2023/07/15 05:59:58;;;;;;;4.15;1.50;;;27.50;96.00;;;;;;5096415;27;20043;-78
2023/07/15 06:02:25;;;;;;;3.25;1.20;;;27.40;96.50;;;;;;5114292;27;20509;-82
2023/07/15 06:04:51;;;;;;;3.22;1.45;;;27.10;96.40;;;;;;5107247;27;20050;-80
2023/07/15 06:07:16;;;;;;;5.65;1.50;;;27.00;96.90;;;;;;5110062;27;20043;-80
2023/07/15 06:09:42;;;;;;;12.85;1.80;;;26.70;97.10;;;;;;5115631;27;20024;-80
2023/07/15 06:12:08;;;;;;;5.20;2.30;;;26.50;97.20;;;;;;5116041;27;20043;-82
2023/07/15 06:14:33;;;;;;;4.40;1.30;;;26.40;97.50;;;;;;5107823;27;20825;-80
2023/07/15 06:16:59;;;;;;;4.38;1.38;;;26.40;97.70;;;;;;5095175;27;20044;-80
2023/07/15 06:19:24;;;;;;;5.80;1.35;;;26.40;97.70;;;;;;5114457;27;20042;-81
2023/07/15 06:21:50;;;;;;;5.20;1.27;;;26.40;98.30;;;;;;5110827;27;20059;-81
2023/07/15 06:24:16;;;;;;;2.38;1.33;;;26.40;98.60;;;;;;5112557;27;20086;-77
2023/07/15 06:26:41;;;;;;;4.32;1.17;;;26.30;99.00;;;;;;5116057;27;20068;-79
2023/07/15 06:29:07;;;;;;;2.63;1.23;;;26.30;99.10;;;;;;5111640;27;20044;-80
2023/07/15 06:31:32;;;;;;;3.53;1.42;;;26.30;99.00;;;;;;5109424;27;20115;-80
2023/07/15 06:33:58;;;;;;;4.55;1.20;;;26.30;99.00;;;;;;5105758;27;20035;-81
2023/07/15 06:36:23;;;;;;;3.95;1.77;;;26.40;99.10;;;;;;5110976;27;20464;-82
2023/07/15 06:38:49;;;;;;;3.15;1.40;;;26.30;99.20;;;;;;5111516;27;20118;-81
2023/07/15 06:41:15;;;;;;;4.93;1.40;;;26.30;99.40;;;;;;5117171;27;20036;-80
2023/07/15 06:43:40;;;;;;;3.85;1.40;;;26.40;99.40;;;;;;5109333;27;20054;-77
2023/07/15 06:46:06;;;;;;;3.42;1.25;;;26.30;99.60;;;;;;5111057;27;20047;-79
2023/07/15 06:48:32;;;;;;;3.95;1.30;;;26.10;99.50;;;;;;5110832;27;20114;-81
2023/07/15 06:50:57;;;;;;;3.58;0.90;;;26.00;99.80;;;;;;5116089;27;20028;-81
2023/07/15 06:53:23;;;;;;;4.32;1.63;;;25.90;99.90;;;;;;5114760;27;20454;-80
2023/07/15 06:55:50;;;;;;;3.38;1.75;;;25.90;99.90;;;;;;5112405;27;20130;-79
2023/07/15 06:58:16;;;;;;;5.22;1.77;;;25.90;99.90;;;;;;5114158;27;20048;-81
2023/07/15 07:00:41;;;;;;;3.78;1.40;;;25.90;99.90;;;;;;5109226;27;20504;-79
2023/07/15 07:03:08;;;;;;;3.50;1.30;;;25.90;99.90;;;;;;5109350;27;20036;-80
2023/07/15 07:05:33;;;;;;;5.03;1.67;;;25.90;99.80;;;;;;5094397;27;20035;-80
2023/07/15 07:07:59;;;;;;;4.88;1.63;;;26.00;99.70;;;;;;5105391;27;20046;-80
2023/07/15 07:10:24;;;;;;;4.22;1.40;;;26.20;99.90;;;;;;5106779;27;20043;-81
2023/07/15 07:12:51;;;;;;;2.65;1.13;;;26.50;99.90;;;;;;5100307;27;20113;-80
2023/07/15 07:15:16;;;;;;;3.50;1.45;;;26.60;99.90;;;;;;5113902;27;20035;-81
2023/07/15 07:17:42;;;;;;;4.40;1.98;;;26.30;99.50;;;;;;5116260;27;20066;-81
2023/07/15 07:20:08;;;;;;;4.57;1.42;;;26.30;99.80;;;;;;5119835;27;20039;-81
2023/07/15 07:22:34;;;;;;;5.10;1.20;;;26.40;99.90;;;;;;5115806;27;20044;-80
2023/07/15 07:25:00;;;;;;;2.95;1.10;;;26.50;99.90;;;;;;5114749;27;20093;-81
2023/07/15 07:27:25;;;;;;;1.90;1.00;;;26.70;99.90;;;;;;5117547;27;20043;-80
2023/07/15 07:29:52;;;;;;;3.28;1.20;;;26.90;99.90;;;;;;5115053;27;20039;-81
2023/07/15 07:32:18;;;;;;;6.63;1.60;;;27.00;99.90;;;;;;5119711;27;20046;-80
2023/07/15 07:34:44;;;;;;;5.30;1.10;;;27.00;99.90;;;;;;5116318;27;20043;-80
2023/07/15 07:37:09;;;;;;;4.00;1.38;;;26.90;99.90;;;;;;5117961;27;20527;-81
2023/07/15 07:39:35;;;;;;;3.67;1.48;;;26.80;99.90;;;;;;5122160;27;20031;-80
2023/07/15 07:42:00;;;;;;;4.45;1.60;;;26.70;99.90;;;;;;5115215;27;20436;-81
2023/07/15 07:44:26;;;;;;;3.17;1.15;;;26.70;99.90;;;;;;5114618;27;20481;-79
2023/07/15 07:46:51;;;;;;;2.00;1.02;;;26.90;99.90;;;;;;5115028;27;20039;-80
2023/07/15 07:49:17;;;;;;;3.15;0.85;;;26.90;99.90;;;;;;5114574;28;20386;-81
2023/07/15 07:51:43;;;;;;;1.48;1.00;;;27.10;99.90;;;;;;5113903;28;20039;-80
2023/07/15 07:54:08;;;;;;;2.60;1.40;;;27.20;99.90;;;;;;5114999;28;20119;-81
2023/07/15 07:56:35;;;;;;;6.78;1.52;;;27.30;99.90;;;;;;5119884;27;20040;-81
2023/07/15 07:59:01;;;;;;;5.20;1.20;;;27.20;99.90;;;;;;5125417;27;20047;-81
2023/07/15 08:01:28;;;;;;;4.25;1.10;;;27.00;99.90;;;;;;5117779;27;20039;-81
2023/07/15 08:03:54;;;;;;;2.97;1.42;;;26.70;99.90;;;;;;5122532;27;20166;-80
2023/07/15 08:06:21;;;;;;;4.25;1.30;;;26.50;99.90;;;;;;5124158;27;20035;-80
2023/07/15 08:08:46;;;;;;;2.58;1.20;;;26.40;99.90;;;;;;5116215;27;20039;-79
2023/07/15 08:11:12;;;;;;;3.58;1.75;;;26.20;99.90;;;;;;5101144;27;20147;-80
2023/07/15 08:13:37;;;;;;;4.22;1.25;;;26.30;99.90;;;;;;5125696;27;20442;-81
2023/07/15 08:16:03;;;;;;;7.72;1.77;;;26.40;99.90;;;;;;5119960;27;20046;-81
2023/07/15 08:18:29;;;;;;;5.07;1.80;;;26.40;99.90;;;;;;5119113;27;20048;-81
2023/07/15 08:20:54;;;;;;;6.65;1.65;;;26.60;99.90;;;;;;5117013;27;20040;-81
2023/07/15 08:23:20;;;;;;;3.08;1.98;;;26.60;99.90;;;;;;5115527;27;20124;-80
2023/07/15 08:25:46;;;;;;;2.95;1.73;;;26.90;99.90;;;;;;5124242;27;20027;-80
2023/07/15 08:28:11;;;;;;;3.60;1.33;;;26.90;99.90;;;;;;5122365;27;20047;-81
2023/07/15 08:30:37;;;;;;;8.80;1.98;;;26.90;99.90;;;;;;5122405;27;20035;-81
2023/07/15 08:33:04;;;;;;;3.13;1.92;;;26.90;99.90;;;;;;5119408;27;20043;-81
2023/07/15 08:35:30;;;;;;;2.83;1.55;;;27.10;99.90;;;;;;5119925;27;20129;-81
2023/07/15 08:37:55;;;;;;;5.65;1.10;;;27.30;99.90;;;;;;5113794;27;20036;-81
2023/07/15 08:40:24;;;;;;;3.60;1.67;;;27.50;99.90;;;;;;5114367;27;20061;-80
2023/07/15 08:42:50;;;;;;;5.05;1.20;;;27.60;99.90;;;;;;5118732;27;20032;-80
2023/07/15 08:45:17;;;;;;;2.45;1.35;;;27.80;99.90;;;;;;5118307;27;20385;-81
2023/07/15 08:47:44;;;;;;;6.50;1.10;;;27.80;99.90;;;;;;5122039;27;20786;-81
2023/07/15 08:50:15;;;;;;;4.13;1.10;;;28.10;99.90;;;;;;5120004;27;20051;-81
2023/07/15 08:52:43;;;;;;;4.05;1.15;;;27.80;99.90;;;;;;5118053;27;20044;-81
2023/07/15 08:55:09;;;;;;;3.50;1.25;;;27.60;99.90;;;;;;5118564;27;20052;-81
2023/07/15 08:57:36;;;;;;;2.15;0.73;;;27.30;99.90;;;;;;5120167;27;20119;-81
2023/07/15 09:00:10;;;;;;;2.00;0.90;;;27.00;99.90;;;;;;5125894;27;20036;-81
2023/07/15 09:02:37;;;;;;;2.15;1.00;;;26.90;99.90;;;;;;5117490;27;20081;-82
2023/07/15 09:05:08;;;;;;;3.13;1.20;;;26.70;99.90;;;;;;5117964;27;20094;-80
2023/07/15 09:07:43;;;;;;;2.35;1.13;;;26.50;99.90;;;;;;5120616;27;20036;-80
2023/07/15 09:10:12;;;;;;;2.67;0.80;;;26.50;99.90;;;;;;5115142;27;20502;-81
2023/07/15 09:12:42;;;;;;;4.38;1.20;;;26.50;99.90;;;;;;5109585;27;20039;-79
2023/07/15 09:15:08;;;;;;;1.40;1.00;;;26.50;99.90;;;;;;5113283;27;20067;-81
2023/07/15 09:17:35;;;;;;;3.03;0.80;;;26.70;99.90;;;;;;5116298;27;20067;-80
2023/07/15 09:20:16;;;;;;;2.97;1.38;;;26.80;99.90;;;;;;5117775;27;20042;-81
2023/07/15 09:22:41;;;;;;;4.20;1.20;;;27.00;99.90;;;;;;5123597;27;21006;-80
2023/07/15 09:25:10;;;;;;;3.92;0.98;;;27.40;99.90;;;;;;5122732;27;20035;-80
2023/07/15 09:27:40;;;;;;;1.83;1.40;;;27.50;99.90;;;;;;5116222;27;20047;-81
2023/07/15 09:30:08;;;;;;;2.58;1.35;;;27.70;99.90;;;;;;5115747;27;20549;-80
2023/07/15 09:32:33;;;;;;;3.17;1.50;;;28.00;99.90;;;;;;5122634;27;20048;-80
2023/07/15 09:34:59;;;;;;;5.15;1.30;;;28.30;99.90;;;;;;5113211;27;20047;-81
2023/07/15 09:37:29;;;;;;;4.63;1.50;;;28.40;99.90;;;;;;5118907;27;20045;-81
2023/07/15 09:40:07;;;;;;;4.68;1.85;;;28.40;99.90;;;;;;5119170;27;20043;-81
2023/07/15 09:42:53;;;;;;;7.55;1.80;;;28.40;99.90;;;;;;5118848;27;20039;-80
2023/07/15 09:45:39;;;;;;;2.75;1.08;;;28.60;99.90;;;;;;5116446;27;20035;-80
2023/07/15 09:48:07;;;;;;;4.40;1.30;;;28.60;99.90;;;;;;5114944;27;20501;-81
2023/07/15 09:50:34;;;;;;;1.63;1.20;;;28.40;99.90;;;;;;5122460;27;20043;-80
2023/07/15 09:53:00;;;;;;;41.88;2.88;;;28.50;99.90;;;;;;5118258;27;20072;-81
2023/07/15 09:55:28;;;;;;;3.35;0.85;;;28.30;99.90;;;;;;5118483;27;20039;-81
2023/07/15 09:58:03;;;;;;;2.58;1.30;;;28.10;99.90;;;;;;5135107;27;20059;-80
2023/07/15 10:00:33;;;;;;;1.77;1.10;;;27.80;99.90;;;;;;5120109;27;20045;-81
2023/07/15 10:03:01;;;;;;;2.75;0.93;;;27.60;99.90;;;;;;5111572;27;20042;-81
2023/07/15 10:05:27;;;;;;;7.47;1.30;;;27.50;99.90;;;;;;5115818;27;20055;-81
2023/07/15 10:07:54;;;;;;;2.58;1.17;;;27.60;99.90;;;;;;5116575;27;20051;-79
2023/07/15 10:10:20;;;;;;;2.63;0.88;;;27.80;99.90;;;;;;5120337;27;20043;-81
2023/07/15 10:12:47;;;;;;;1.65;0.70;;;27.70;99.90;;;;;;5122421;27;20447;-81
2023/07/15 10:15:13;;;;;;;2.72;0.90;;;27.70;99.90;;;;;;5116774;27;20144;-81
2023/07/15 10:17:39;;;;;;;2.13;0.82;;;27.60;99.90;;;;;;5115455;27;20039;-80
2023/07/15 10:20:12;;;;;;;2.38;1.08;;;27.60;99.90;;;;;;5118921;27;20039;-81
2023/07/15 10:22:39;;;;;;;3.40;0.90;;;27.50;99.90;;;;;;5109080;27;20082;-81
2023/07/15 10:25:09;;;;;;;3.20;0.82;;;27.40;99.90;;;;;;5121488;27;20043;-81
2023/07/15 10:27:35;;;;;;;5.03;0.80;;;27.50;99.90;;;;;;5118974;27;20077;-79
2023/07/15 10:30:26;;;;;;;3.13;0.98;;;27.70;99.90;;;;;;5115558;27;20061;-81
2023/07/15 10:33:00;;;;;;;3.55;1.00;;;27.60;99.90;;;;;;5113728;27;20048;-79
2023/07/15 10:35:34;;;;;;;3.15;0.85;;;27.50;99.90;;;;;;5118947;27;20039;-81
2023/07/15 10:38:19;;;;;;;4.72;0.95;;;27.30;99.90;;;;;;5123266;27;20098;-79
2023/07/15 10:40:47;;;;;;;;;;;27.30;99.90;;;;;;5119338;27;20066;-80
2023/07/15 10:43:43;;;;;;;3.05;0.77;;;27.20;99.90;;;;;;5117212;27;20199;-80
2023/07/15 10:46:12;;;;;;;;;;;27.20;99.90;;;;;;5119202;27;20039;-81
2023/07/15 10:48:39;;;;;;;3.75;0.68;;;27.10;99.90;;;;;;5109508;27;19998;-81
2023/07/15 10:51:09;;;;;;;2.45;0.80;;;27.10;99.90;;;;;;5114194;27;20039;-79
2023/07/15 10:53:35;;;;;;;1.00;0.50;;;27.10;99.90;;;;;;5133495;27;20067;-81
2023/07/15 10:56:09;;;;;;;3.80;0.50;;;27.40;99.90;;;;;;5118320;27;20565;-81
2023/07/15 10:58:36;;;;;;;1.73;0.47;;;27.50;99.90;;;;;;5115319;27;20040;-79
2023/07/15 11:01:06;;;;;;;5.85;0.80;;;27.50;99.90;;;;;;5118175;27;20477;-81
2023/07/15 11:03:35;;;;;;;4.07;0.45;;;27.30;99.90;;;;;;5115443;27;20035;-81
2023/07/15 11:06:01;;;;;;;2.65;0.68;;;27.20;99.90;;;;;;5119562;27;20047;-80
2023/07/15 11:08:28;;;;;;;2.38;0.50;;;27.30;99.90;;;;;;5115123;27;20031;-81
2023/07/15 11:11:02;;;;;;;2.97;0.50;;;27.30;99.90;;;;;;5114135;27;20472;-80
2023/07/15 11:13:28;;;;;;;5.60;1.00;;;27.10;99.90;;;;;;5121494;27;20045;-81
2023/07/15 11:15:55;;;;;;;3.15;0.47;;;27.00;99.90;;;;;;5118727;27;20814;-81
2023/07/15 11:18:23;;;;;;;2.55;0.43;;;26.90;99.90;;;;;;5119192;27;20050;-81
2023/07/15 11:20:51;;;;;;;2.05;1.00;;;26.80;99.90;;;;;;5101133;28;20039;-81
2023/07/15 11:23:17;;;;;;;2.65;0.90;;;26.50;99.90;;;;;;5118301;27;20039;-79
2023/07/15 11:25:43;;;;;;;1.65;0.63;;;26.50;99.90;;;;;;5116844;27;20034;-81
2023/07/15 11:28:10;;;;;;;6.85;0.75;;;26.70;99.90;;;;;;5112604;27;20040;-81
2023/07/15 11:30:37;;;;;;;1.95;0.85;;;26.80;99.90;;;;;;5116193;27;20040;-82
2023/07/15 11:33:04;;;;;;;4.00;0.82;;;26.80;99.90;;;;;;5113426;27;20110;-79
2023/07/15 11:35:31;;;;;;;4.78;1.55;;;26.70;99.90;;;;;;5117715;27;20032;-79
2023/07/15 11:37:56;;;;;;;8.18;0.98;;;26.70;99.90;;;;;;5119953;27;20050;-80
2023/07/15 11:40:22;;;;;;;7.35;0.93;;;26.50;99.90;;;;;;5119950;27;20035;-80
2023/07/15 11:42:50;;;;;;;5.97;0.80;;;26.40;99.90;;;;;;5119738;27;20085;-79
2023/07/15 11:45:16;;;;;;;1.75;0.70;;;26.20;99.90;;;;;;5118055;27;20032;-80
2023/07/15 11:47:42;;;;;;;5.35;1.20;;;26.20;99.90;;;;;;5116139;27;20101;-80
2023/07/15 11:50:12;;;;;;;6.53;0.93;;;26.10;99.90;;;;;;5111340;27;20089;-81
2023/07/15 11:52:44;;;;;;;3.00;0.90;;;26.20;99.90;;;;;;5115909;28;20043;-79
2023/07/15 11:55:10;;;;;;;3.85;0.70;;;26.20;99.90;;;;;;5112079;28;20122;-80
2023/07/15 11:57:47;;;;;;;2.95;0.90;;;26.20;99.90;;;;;;5116356;28;20127;-82
2023/07/15 12:00:33;;;;;;;2.05;0.73;;;26.30;99.90;;;;;;5119331;28;20032;-80
2023/07/15 12:03:07;;;;;;;2.20;0.73;;;26.40;99.90;;;;;;5114012;28;20689;-80
2023/07/15 12:05:37;;;;;;;17.45;1.35;;;26.40;99.90;;;;;;5118807;28;20042;-80
2023/07/15 12:08:13;;;;;;;2.78;0.70;;;26.40;99.90;;;;;;5119346;28;20035;-80
2023/07/15 12:10:50;;;;;;;3.35;0.80;;;26.50;99.90;;;;;;5118682;28;20371;-81
2023/07/15 12:13:16;;;;;;;6.28;1.00;;;26.60;99.90;;;;;;5110348;28;20102;-80
2023/07/15 12:15:41;;;;;;;1.67;0.90;;;26.50;99.90;;;;;;5119789;28;20409;-80
2023/07/15 12:18:07;;;;;;;9.38;0.88;;;26.50;99.90;;;;;;5122482;28;20039;-80
2023/07/15 12:20:32;;;;;;;3.75;1.10;;;26.40;99.90;;;;;;5115841;28;20162;-79
2023/07/15 12:22:58;;;;;;;6.65;1.13;;;26.70;99.90;;;;;;5120865;28;20049;-80
2023/07/15 12:25:25;;;;;;;19.10;1.70;;;26.70;99.90;;;;;;5120371;28;20042;-80
2023/07/15 12:27:51;;;;;;;9.18;1.35;;;26.90;99.90;;;;;;5120413;28;20074;-79
2023/07/15 12:30:16;;;;;;;1.88;0.77;;;27.10;99.90;;;;;;5112725;28;20036;-81
2023/07/15 12:32:42;;;;;;;4.80;0.90;;;27.10;99.90;;;;;;5120224;28;20723;-80
2023/07/15 12:35:08;;;;;;;4.13;1.08;;;27.00;99.90;;;;;;5120088;28;20730;-80
2023/07/15 12:37:35;;;;;;;4.32;0.77;;;27.10;99.90;;;;;;5124116;28;20107;-80
2023/07/15 12:40:03;;;;;;;11.05;1.30;;;27.20;99.90;;;;;;5115304;27;20244;-81
2023/07/15 12:42:28;;;;;;;5.93;1.20;;;27.20;99.90;;;;;;5119888;27;20046;-80
2023/07/15 12:44:54;;;;;;;5.20;1.33;;;27.20;99.90;;;;;;5122584;27;20411;-80
2023/07/15 12:47:20;;;;;;;2.38;1.13;;;27.10;99.70;;;;;;5116696;27;20031;-80
2023/07/15 12:49:45;;;;;;;2.42;0.75;;;27.10;99.80;;;;;;5117115;27;20164;-80